Terminal Aerodrome Forecast
Issued by NWS

Home | Current Version | Previous Version | Text Only | Print | Product List | Glossary On
Versions: 1 2 3 4 5 6 7 8 9 10 11 12 13 14 15
000
FTUS45 KMSO 202233 AAA
TAFSMN
TAF AMD
KSMN 202233Z 2023/2118 24020G26KT 6SM -RA BKN040 BKN070
     FM210000 18012G25KT P6SM VCSH FEW060
     FM210300 20010KT P6SM VCSH BKN060
      AMD LTD TO CLD VIS AND WIND=

USA.gov is the U.S. government's official web portal to all federal, state and local government web resources and services.